Detall de PIREP

Printer-friendly versionPDF version

[2016/12/31 10:37:00]
Flight IATA:CT1004
Pilot Number:012
Company ICAO:CAT
Aircraft Type:DC3/A
PAX:19
Aircraft Registration:PAX
Departing Airport: LPPR
Destination Airport: LEDA
Alternate Airport:LEBL
Online: VATSIM
Route:BELDU A43 ZMR A33 VEMAK N867 RBO R870 VILAR
Flight Level:F100
No Slew and time accel
No pause
Crash detect
Detect pilot in Cockpit between each 30 and 45 minutes
10:37 Zero fuel Weight: 19774 Lbs, Fuel Weight: 2420 Lbs
10:37 VATSIM:LPPR 311000Z 11011KT CAVOK 08/02 Q1030
10:37 VATSIM:LEDA 301600Z 00000KT 0050 R31/0250N FG OVC001 01/01 Q1035
10:37 XMAS CHARTER
10:38 Parking Brakes off
10:43 Take-off
10:43 Take off Weight: 22167 Lbs
10:43 Wind: 113º @ 011 Knots Heading: 165º
10:43 POS N41º 14´ 41´´ W008º 40´ 50´´
10:43 Gear Up: 113 Knots
10:55 TOC
10:55 Fuel Weight: 2236 Lb
10:55 TOD
10:55 Fuel Weight: 2236 Lb
10:55 TOC
10:55 Fuel Weight: 2235Lb
10:58 Wind:181º@013 Knots Heading: 080º Ground Speed: 169 Knots Altitude 10511 ft
11:13 Wind:183º@011 Knots Heading: 087º Ground Speed: 167 Knots Altitude 10515 ft
11:28 Wind:190º@006 Knots Heading: 085º Ground Speed: 167 Knots Altitude 10518 ft
11:43 Wind:195º@006 Knots Heading: 117º Ground Speed: 165 Knots Altitude 10505 ft
11:58 Wind:218º@006 Knots Heading: 117º Ground Speed: 167 Knots Altitude 10524 ft
12:13 Wind:212º@006 Knots Heading: 118º Ground Speed: 168 Knots Altitude 10501 ft
12:28 Wind:232º@006 Knots Heading: 074º Ground Speed: 172 Knots Altitude 10541 ft
12:43 Wind:323º@008 Knots Heading: 072º Ground Speed: 169 Knots Altitude 10538 ft
12:58 Wind:323º@008 Knots Heading: 072º Ground Speed: 168 Knots Altitude 10547 ft
13:13 Wind:349º@006 Knots Heading: 088º Ground Speed: 168 Knots Altitude 10551 ft
13:17 TOD
13:17 Fuel Weight: 614 Lb
13:28 Wind:228º@001 Knots Heading: 007º Ground Speed: 136 Knots Altitude 4225 ft
13:34 Gear Down: 119 Knots
13:35 Flaps:1 at 118 Knots
13:36 Flaps:2 at 110 Knots
13:36 Flaps:3 at 100 Knots
13:37 Flaps:4 at 94 Knots
13:38 TouchDown:Rate -145 ft/min Speed: 57 Knots
13:38 Flaps:0 at 33 Knots
13:38 VATSIM:LEDA 301600Z 00000KT 0050 R31/0250N FG OVC001 01/01 Q1035
13:38 Land
13:38 Wind:279º@001 Knots
13:38 Heading: 325º
13:38 Flight Duration: 02:55
13:38 Landing Weight: 20210 Lbs
13:38 POS N41º 43´ 34´´ E000º 32´ 16´´
13:39 Parking brakes on
13:39 Block to Block Duration: 03:01
13:39 Final Fuel: 432 Lbls
13:39 Spent Fuel: 1988 Lbls
13:39 Flight Length: 473 NM
13:39 TOD Land Length: 52 NM

Exportar CSV

Powered by Drupal - Modified by Danger4k